logo
Search for airport 
image banner adimage banner adimage banner ad
image banner ad

LLMB - Mishmeret

Located in , Israel

ICAO - , IATA -

Data provided by Airmate  

General information

Coordinates: N32°13'55" E34°55'14"
Elevation is 225 feet MSL.
 
View others Airports in Tel Aviv District

Operational data

Special qualification required
Current time UTC:
Current local time:
Weather at : LLHZ - Herzelia Domestic Airport ( 10 km )
TAF: TAF LLHZ 191103Z 1912/2012 32010KT 9999 SCT025 BECMG 1915/1917 VRB03KT SCT020 PROB40 TEMPO 1922/2006 15005KT 8000 BKN015 BECMG 2008/2010 30010KT CAVOK TX23/1912Z TN15/2003Z
View NOTAMs / SUP AIP / TFR affecting this airport [VIEW]
Communications frequencies: [VIEW]

Runways:

Airport contact information

Address: Israel

Satellite view of LLMB